sensor_id;sensor_type;location;lat;lon;timestamp;temperature;humidity
68011;DHT22;54794;48.348;7.878;2024-02-26T00:02:18;11.80;49.50
68011;DHT22;54794;48.348;7.878;2024-02-26T00:04:44;11.70;49.50
68011;DHT22;54794;48.348;7.878;2024-02-26T00:07:11;11.80;49.40
68011;DHT22;54794;48.348;7.878;2024-02-26T00:09:38;11.80;49.70
68011;DHT22;54794;48.348;7.878;2024-02-26T00:12:05;11.80;49.80
68011;DHT22;54794;48.348;7.878;2024-02-26T00:14:32;11.70;50.00
68011;DHT22;54794;48.348;7.878;2024-02-26T00:17:00;11.70;50.00
68011;DHT22;54794;48.348;7.878;2024-02-26T00:19:27;11.70;50.20
68011;DHT22;54794;48.348;7.878;2024-02-26T00:21:54;11.60;50.30
68011;DHT22;54794;48.348;7.878;2024-02-26T00:24:22;11.60;50.40
68011;DHT22;54794;48.348;7.878;2024-02-26T00:26:48;11.60;50.40
68011;DHT22;54794;48.348;7.878;2024-02-26T00:29:19;12.00;50.70
68011;DHT22;54794;48.348;7.878;2024-02-26T00:31:47;11.50;50.60
68011;DHT22;54794;48.348;7.878;2024-02-26T00:34:14;11.50;50.80
68011;DHT22;54794;48.348;7.878;2024-02-26T00:36:41;11.50;50.90
68011;DHT22;54794;48.348;7.878;2024-02-26T00:39:08;11.60;51.00
68011;DHT22;54794;48.348;7.878;2024-02-26T00:41:40;11.50;51.10
68011;DHT22;54794;48.348;7.878;2024-02-26T00:44:08;11.50;51.60
68011;DHT22;54794;48.348;7.878;2024-02-26T00:46:34;11.40;51.30
68011;DHT22;54794;48.348;7.878;2024-02-26T00:49:01;11.40;51.70
68011;DHT22;54794;48.348;7.878;2024-02-26T00:51:30;11.40;51.60
68011;DHT22;54794;48.348;7.878;2024-02-26T00:53:57;11.40;51.50
68011;DHT22;54794;48.348;7.878;2024-02-26T00:56:24;11.50;51.90
68011;DHT22;54794;48.348;7.878;2024-02-26T00:58:51;11.50;51.90
68011;DHT22;54794;48.348;7.878;2024-02-26T01:01:18;11.80;52.10
68011;DHT22;54794;48.348;7.878;2024-02-26T01:03:45;11.30;52.00
68011;DHT22;54794;48.348;7.878;2024-02-26T01:06:12;11.60;52.20
68011;DHT22;54794;48.348;7.878;2024-02-26T01:08:39;11.10;51.90
68011;DHT22;54794;48.348;7.878;2024-02-26T01:11:06;11.20;52.10
68011;DHT22;54794;48.348;7.878;2024-02-26T01:13:34;10.80;52.00
68011;DHT22;54794;48.348;7.878;2024-02-26T01:16:01;11.50;52.40
68011;DHT22;54794;48.348;7.878;2024-02-26T01:18:28;11.40;52.40
68011;DHT22;54794;48.348;7.878;2024-02-26T01:20:55;11.30;52.40
68011;DHT22;54794;48.348;7.878;2024-02-26T01:23:22;11.20;52.40
68011;DHT22;54794;48.348;7.878;2024-02-26T01:25:49;11.20;52.50
68011;DHT22;54794;48.348;7.878;2024-02-26T01:28:16;11.30;52.50
68011;DHT22;54794;48.348;7.878;2024-02-26T01:30:43;11.20;52.50
68011;DHT22;54794;48.348;7.878;2024-02-26T01:33:10;11.00;52.40
68011;DHT22;54794;48.348;7.878;2024-02-26T01:35:37;11.20;52.60
68011;DHT22;54794;48.348;7.878;2024-02-26T01:38:04;11.20;52.70
68011;DHT22;54794;48.348;7.878;2024-02-26T01:40:31;11.10;52.80
68011;DHT22;54794;48.348;7.878;2024-02-26T01:42:59;11.40;53.90
68011;DHT22;54794;48.348;7.878;2024-02-26T01:45:26;11.00;53.00
68011;DHT22;54794;48.348;7.878;2024-02-26T01:47:54;11.10;53.40
68011;DHT22;54794;48.348;7.878;2024-02-26T01:50:22;11.00;53.30
68011;DHT22;54794;48.348;7.878;2024-02-26T01:52:51;11.00;53.20
68011;DHT22;54794;48.348;7.878;2024-02-26T01:55:19;11.00;53.30
68011;DHT22;54794;48.348;7.878;2024-02-26T01:57:49;11.00;53.60
68011;DHT22;54794;48.348;7.878;2024-02-26T02:00:18;11.30;54.00
68011;DHT22;54794;48.348;7.878;2024-02-26T02:02:48;10.90;53.50
68011;DHT22;54794;48.348;7.878;2024-02-26T02:05:17;10.90;53.60
68011;DHT22;54794;48.348;7.878;2024-02-26T02:07:44;10.90;53.60
68011;DHT22;54794;48.348;7.878;2024-02-26T02:10:12;10.90;53.70
68011;DHT22;54794;48.348;7.878;2024-02-26T02:12:39;10.90;53.80
68011;DHT22;54794;48.348;7.878;2024-02-26T02:15:07;10.50;53.70
68011;DHT22;54794;48.348;7.878;2024-02-26T02:17:34;10.90;53.80
68011;DHT22;54794;48.348;7.878;2024-02-26T02:20:02;11.10;54.60
68011;DHT22;54794;48.348;7.878;2024-02-26T02:22:30;10.80;53.80
68011;DHT22;54794;48.348;7.878;2024-02-26T02:24:58;10.80;53.90
68011;DHT22;54794;48.348;7.878;2024-02-26T02:27:27;10.80;54.10
68011;DHT22;54794;48.348;7.878;2024-02-26T02:29:54;10.80;54.10
68011;DHT22;54794;48.348;7.878;2024-02-26T02:32:21;10.80;54.20
68011;DHT22;54794;48.348;7.878;2024-02-26T02:34:50;10.80;54.10
68011;DHT22;54794;48.348;7.878;2024-02-26T02:37:17;10.90;54.40
68011;DHT22;54794;48.348;7.878;2024-02-26T02:39:44;10.90;54.40
68011;DHT22;54794;48.348;7.878;2024-02-26T02:42:11;10.80;54.30
68011;DHT22;54794;48.348;7.878;2024-02-26T02:44:38;10.70;54.30
68011;DHT22;54794;48.348;7.878;2024-02-26T02:47:05;10.70;54.40
68011;DHT22;54794;48.348;7.878;2024-02-26T02:49:32;10.70;54.40
68011;DHT22;54794;48.348;7.878;2024-02-26T02:51:59;10.70;54.30
68011;DHT22;54794;48.348;7.878;2024-02-26T02:54:26;11.30;54.70
68011;DHT22;54794;48.348;7.878;2024-02-26T02:56:53;10.70;54.40
68011;DHT22;54794;48.348;7.878;2024-02-26T02:59:20;10.70;54.50
68011;DHT22;54794;48.348;7.878;2024-02-26T03:01:47;10.70;54.60
68011;DHT22;54794;48.348;7.878;2024-02-26T03:04:14;10.70;54.70
68011;DHT22;54794;48.348;7.878;2024-02-26T03:06:41;10.90;54.80
68011;DHT22;54794;48.348;7.878;2024-02-26T03:09:08;10.70;54.70
68011;DHT22;54794;48.348;7.878;2024-02-26T03:11:35;10.70;54.90
68011;DHT22;54794;48.348;7.878;2024-02-26T03:14:02;10.50;54.80
68011;DHT22;54794;48.348;7.878;2024-02-26T03:16:29;10.80;55.00
68011;DHT22;54794;48.348;7.878;2024-02-26T03:18:56;10.70;54.90
68011;DHT22;54794;48.348;7.878;2024-02-26T03:21:24;10.70;55.10
68011;DHT22;54794;48.348;7.878;2024-02-26T03:23:52;10.70;55.00
68011;DHT22;54794;48.348;7.878;2024-02-26T03:26:19;10.80;55.40
68011;DHT22;54794;48.348;7.878;2024-02-26T03:28:46;10.70;55.70
68011;DHT22;54794;48.348;7.878;2024-02-26T03:31:13;10.90;55.60
68011;DHT22;54794;48.348;7.878;2024-02-26T03:33:40;10.70;55.70
68011;DHT22;54794;48.348;7.878;2024-02-26T03:36:07;10.70;55.30
68011;DHT22;54794;48.348;7.878;2024-02-26T03:38:34;10.70;55.50
68011;DHT22;54794;48.348;7.878;2024-02-26T03:41:01;11.30;55.70
68011;DHT22;54794;48.348;7.878;2024-02-26T03:43:28;10.70;55.30
68011;DHT22;54794;48.348;7.878;2024-02-26T03:45:54;10.70;55.40
68011;DHT22;54794;48.348;7.878;2024-02-26T03:48:21;10.90;55.50
68011;DHT22;54794;48.348;7.878;2024-02-26T03:50:48;10.70;55.40
68011;DHT22;54794;48.348;7.878;2024-02-26T03:53:15;10.70;55.40
68011;DHT22;54794;48.348;7.878;2024-02-26T03:55:45;10.70;55.60
68011;DHT22;54794;48.348;7.878;2024-02-26T03:58:12;11.10;55.90
68011;DHT22;54794;48.348;7.878;2024-02-26T04:00:39;10.70;55.60
68011;DHT22;54794;48.348;7.878;2024-02-26T04:03:06;10.80;55.70
68011;DHT22;54794;48.348;7.878;2024-02-26T04:05:33;10.70;56.20
68011;DHT22;54794;48.348;7.878;2024-02-26T04:08:00;10.80;55.70
68011;DHT22;54794;48.348;7.878;2024-02-26T04:10:26;10.80;55.70
68011;DHT22;54794;48.348;7.878;2024-02-26T04:12:53;10.80;55.80
68011;DHT22;54794;48.348;7.878;2024-02-26T04:15:20;10.80;56.00
68011;DHT22;54794;48.348;7.878;2024-02-26T04:17:47;11.00;56.00
68011;DHT22;54794;48.348;7.878;2024-02-26T04:20:15;10.80;56.00
68011;DHT22;54794;48.348;7.878;2024-02-26T04:22:43;10.80;56.00
68011;DHT22;54794;48.348;7.878;2024-02-26T04:25:11;10.80;56.10
68011;DHT22;54794;48.348;7.878;2024-02-26T04:27:38;10.80;56.10
68011;DHT22;54794;48.348;7.878;2024-02-26T04:30:06;10.80;56.10
68011;DHT22;54794;48.348;7.878;2024-02-26T04:32:34;10.80;56.20
68011;DHT22;54794;48.348;7.878;2024-02-26T04:35:02;10.80;56.20
68011;DHT22;54794;48.348;7.878;2024-02-26T04:37:29;10.80;56.10
68011;DHT22;54794;48.348;7.878;2024-02-26T04:39:59;10.90;55.90
68011;DHT22;54794;48.348;7.878;2024-02-26T04:42:27;10.90;56.20
68011;DHT22;54794;48.348;7.878;2024-02-26T04:44:55;10.80;56.20
68011;DHT22;54794;48.348;7.878;2024-02-26T04:47:22;10.90;56.30
68011;DHT22;54794;48.348;7.878;2024-02-26T04:49:50;10.80;56.20
68011;DHT22;54794;48.348;7.878;2024-02-26T04:52:18;10.50;56.10
68011;DHT22;54794;48.348;7.878;2024-02-26T04:54:49;10.90;56.50
68011;DHT22;54794;48.348;7.878;2024-02-26T04:57:16;10.90;56.50
68011;DHT22;54794;48.348;7.878;2024-02-26T04:59:45;11.00;56.70
68011;DHT22;54794;48.348;7.878;2024-02-26T05:02:12;10.90;56.60
68011;DHT22;54794;48.348;7.878;2024-02-26T05:04:40;10.90;56.60
68011;DHT22;54794;48.348;7.878;2024-02-26T05:07:07;10.90;56.50
68011;DHT22;54794;48.348;7.878;2024-02-26T05:09:34;10.90;56.60
68011;DHT22;54794;48.348;7.878;2024-02-26T05:12:02;10.80;56.70
68011;DHT22;54794;48.348;7.878;2024-02-26T05:14:30;10.80;56.80
68011;DHT22;54794;48.348;7.878;2024-02-26T05:16:57;10.80;56.70
68011;DHT22;54794;48.348;7.878;2024-02-26T05:19:24;11.00;56.90
68011;DHT22;54794;48.348;7.878;2024-02-26T05:21:51;10.80;56.80
68011;DHT22;54794;48.348;7.878;2024-02-26T05:24:18;10.80;57.50
68011;DHT22;54794;48.348;7.878;2024-02-26T05:26:45;10.70;57.00
68011;DHT22;54794;48.348;7.878;2024-02-26T05:29:12;10.80;57.20
68011;DHT22;54794;48.348;7.878;2024-02-26T05:31:41;10.70;57.20
68011;DHT22;54794;48.348;7.878;2024-02-26T05:34:09;10.70;57.50
68011;DHT22;54794;48.348;7.878;2024-02-26T05:36:36;10.70;57.80
68011;DHT22;54794;48.348;7.878;2024-02-26T05:39:03;10.90;57.50
68011;DHT22;54794;48.348;7.878;2024-02-26T05:41:30;10.60;57.30
68011;DHT22;54794;48.348;7.878;2024-02-26T05:43:58;10.70;57.40
68011;DHT22;54794;48.348;7.878;2024-02-26T05:46:25;11.00;57.60
68011;DHT22;54794;48.348;7.878;2024-02-26T05:48:54;10.80;57.50
68011;DHT22;54794;48.348;7.878;2024-02-26T05:51:21;10.70;57.60
68011;DHT22;54794;48.348;7.878;2024-02-26T05:53:48;10.60;57.60
68011;DHT22;54794;48.348;7.878;2024-02-26T05:56:24;10.80;57.60
68011;DHT22;54794;48.348;7.878;2024-02-26T05:58:51;11.10;58.30
68011;DHT22;54794;48.348;7.878;2024-02-26T06:01:19;10.50;57.60
68011;DHT22;54794;48.348;7.878;2024-02-26T06:03:55;10.80;58.10
68011;DHT22;54794;48.348;7.878;2024-02-26T06:06:22;10.70;58.00
68011;DHT22;54794;48.348;7.878;2024-02-26T06:08:50;10.70;57.90
68011;DHT22;54794;48.348;7.878;2024-02-26T06:11:18;10.60;57.80
68011;DHT22;54794;48.348;7.878;2024-02-26T06:13:45;10.90;58.30
68011;DHT22;54794;48.348;7.878;2024-02-26T06:16:12;10.80;58.20
68011;DHT22;54794;48.348;7.878;2024-02-26T06:18:39;10.70;58.00
68011;DHT22;54794;48.348;7.878;2024-02-26T06:21:09;10.40;57.80
68011;DHT22;54794;48.348;7.878;2024-02-26T06:23:38;10.80;58.20
68011;DHT22;54794;48.348;7.878;2024-02-26T06:26:06;10.70;58.00
68011;DHT22;54794;48.348;7.878;2024-02-26T06:28:33;11.00;58.20
68011;DHT22;54794;48.348;7.878;2024-02-26T06:31:02;10.90;58.20
68011;DHT22;54794;48.348;7.878;2024-02-26T06:33:29;10.60;58.10
68011;DHT22;54794;48.348;7.878;2024-02-26T06:35:56;10.70;58.20
68011;DHT22;54794;48.348;7.878;2024-02-26T06:38:23;10.60;58.00
68011;DHT22;54794;48.348;7.878;2024-02-26T06:40:50;10.60;58.20
68011;DHT22;54794;48.348;7.878;2024-02-26T06:43:16;10.60;58.00
68011;DHT22;54794;48.348;7.878;2024-02-26T06:45:43;10.60;58.10
68011;DHT22;54794;48.348;7.878;2024-02-26T06:48:10;10.40;57.90
68011;DHT22;54794;48.348;7.878;2024-02-26T06:50:37;10.70;58.10
68011;DHT22;54794;48.348;7.878;2024-02-26T06:53:04;10.90;58.40
68011;DHT22;54794;48.348;7.878;2024-02-26T06:55:33;10.70;58.20
68011;DHT22;54794;48.348;7.878;2024-02-26T06:58:00;10.60;58.20
68011;DHT22;54794;48.348;7.878;2024-02-26T07:00:26;10.50;58.10
68011;DHT22;54794;48.348;7.878;2024-02-26T07:02:53;10.60;58.20
68011;DHT22;54794;48.348;7.878;2024-02-26T07:05:20;10.60;58.40
68011;DHT22;54794;48.348;7.878;2024-02-26T07:07:47;10.70;58.40
68011;DHT22;54794;48.348;7.878;2024-02-26T07:10:14;10.60;58.30
68011;DHT22;54794;48.348;7.878;2024-02-26T07:12:41;10.60;58.70
68011;DHT22;54794;48.348;7.878;2024-02-26T07:15:09;10.60;58.60
68011;DHT22;54794;48.348;7.878;2024-02-26T07:17:36;10.60;58.70
68011;DHT22;54794;48.348;7.878;2024-02-26T07:20:04;10.70;58.60
68011;DHT22;54794;48.348;7.878;2024-02-26T07:22:35;10.60;58.50
68011;DHT22;54794;48.348;7.878;2024-02-26T07:25:03;10.70;58.60
68011;DHT22;54794;48.348;7.878;2024-02-26T07:27:30;10.60;58.60
68011;DHT22;54794;48.348;7.878;2024-02-26T07:29:57;10.70;58.80
68011;DHT22;54794;48.348;7.878;2024-02-26T07:32:24;10.60;58.80
68011;DHT22;54794;48.348;7.878;2024-02-26T07:34:50;10.60;58.80
68011;DHT22;54794;48.348;7.878;2024-02-26T07:37:17;10.70;58.90
68011;DHT22;54794;48.348;7.878;2024-02-26T07:39:47;10.70;58.80
68011;DHT22;54794;48.348;7.878;2024-02-26T07:42:14;10.70;59.00
68011;DHT22;54794;48.348;7.878;2024-02-26T07:44:41;10.80;59.00
68011;DHT22;54794;48.348;7.878;2024-02-26T07:47:09;11.10;59.10
68011;DHT22;54794;48.348;7.878;2024-02-26T07:49:36;10.80;59.00
68011;DHT22;54794;48.348;7.878;2024-02-26T07:52:05;11.00;59.10
68011;DHT22;54794;48.348;7.878;2024-02-26T07:54:32;10.90;59.10
68011;DHT22;54794;48.348;7.878;2024-02-26T07:56:59;10.90;59.20
68011;DHT22;54794;48.348;7.878;2024-02-26T07:59:26;10.90;59.40
68011;DHT22;54794;48.348;7.878;2024-02-26T08:01:53;11.20;59.50
68011;DHT22;54794;48.348;7.878;2024-02-26T08:04:24;11.00;59.50
68011;DHT22;54794;48.348;7.878;2024-02-26T08:06:53;11.00;59.40
68011;DHT22;54794;48.348;7.878;2024-02-26T08:09:20;11.70;59.90
68011;DHT22;54794;48.348;7.878;2024-02-26T08:11:47;11.10;59.90
68011;DHT22;54794;48.348;7.878;2024-02-26T08:14:14;11.40;60.00
68011;DHT22;54794;48.348;7.878;2024-02-26T08:16:41;11.20;59.90
68011;DHT22;54794;48.348;7.878;2024-02-26T08:19:11;11.20;59.90
68011;DHT22;54794;48.348;7.878;2024-02-26T08:21:41;11.40;60.00
68011;DHT22;54794;48.348;7.878;2024-02-26T08:24:08;11.40;59.90
68011;DHT22;54794;48.348;7.878;2024-02-26T08:26:35;12.20;60.20
68011;DHT22;54794;48.348;7.878;2024-02-26T08:29:02;11.60;59.70
68011;DHT22;54794;48.348;7.878;2024-02-26T08:31:29;11.80;59.70
68011;DHT22;54794;48.348;7.878;2024-02-26T08:33:56;11.70;59.70
68011;DHT22;54794;48.348;7.878;2024-02-26T08:36:25;11.60;59.70
68011;DHT22;54794;48.348;7.878;2024-02-26T08:38:52;12.00;59.50
68011;DHT22;54794;48.348;7.878;2024-02-26T08:41:19;12.30;59.80
68011;DHT22;54794;48.348;7.878;2024-02-26T08:43:48;12.00;59.80
68011;DHT22;54794;48.348;7.878;2024-02-26T08:46:14;12.10;59.80
68011;DHT22;54794;48.348;7.878;2024-02-26T08:48:41;12.10;59.80
68011;DHT22;54794;48.348;7.878;2024-02-26T08:51:09;12.20;59.80
68011;DHT22;54794;48.348;7.878;2024-02-26T08:53:36;12.20;59.70
68011;DHT22;54794;48.348;7.878;2024-02-26T08:56:10;12.20;59.70
68011;DHT22;54794;48.348;7.878;2024-02-26T08:58:43;12.30;59.80
68011;DHT22;54794;48.348;7.878;2024-02-26T09:01:10;12.30;59.80
68011;DHT22;54794;48.348;7.878;2024-02-26T09:03:37;12.30;59.90
68011;DHT22;54794;48.348;7.878;2024-02-26T09:06:04;12.40;60.00
68011;DHT22;54794;48.348;7.878;2024-02-26T09:08:33;12.60;59.90
68011;DHT22;54794;48.348;7.878;2024-02-26T09:11:02;12.60;59.80
68011;DHT22;54794;48.348;7.878;2024-02-26T09:13:30;12.50;59.70
68011;DHT22;54794;48.348;7.878;2024-02-26T09:15:57;12.70;59.90
68011;DHT22;54794;48.348;7.878;2024-02-26T09:18:23;12.80;59.60
68011;DHT22;54794;48.348;7.878;2024-02-26T09:20:50;12.40;59.40
68011;DHT22;54794;48.348;7.878;2024-02-26T09:23:17;12.70;59.70
68011;DHT22;54794;48.348;7.878;2024-02-26T09:25:44;12.70;59.70
68011;DHT22;54794;48.348;7.878;2024-02-26T09:28:11;12.70;59.70
68011;DHT22;54794;48.348;7.878;2024-02-26T09:30:38;12.80;60.40
68011;DHT22;54794;48.348;7.878;2024-02-26T09:33:05;12.80;60.00
68011;DHT22;54794;48.348;7.878;2024-02-26T09:35:32;12.80;59.80
68011;DHT22;54794;48.348;7.878;2024-02-26T09:37:59;12.90;60.00
68011;DHT22;54794;48.348;7.878;2024-02-26T09:40:25;12.90;60.00
68011;DHT22;54794;48.348;7.878;2024-02-26T09:43:00;13.00;60.00
68011;DHT22;54794;48.348;7.878;2024-02-26T09:45:28;13.00;60.30
68011;DHT22;54794;48.348;7.878;2024-02-26T09:47:59;13.20;60.00
68011;DHT22;54794;48.348;7.878;2024-02-26T09:50:27;13.20;60.20
68011;DHT22;54794;48.348;7.878;2024-02-26T09:52:54;13.30;60.20
68011;DHT22;54794;48.348;7.878;2024-02-26T09:55:21;13.30;60.20
68011;DHT22;54794;48.348;7.878;2024-02-26T09:57:51;13.50;60.20
68011;DHT22;54794;48.348;7.878;2024-02-26T10:00:19;14.00;60.50
68011;DHT22;54794;48.348;7.878;2024-02-26T10:02:48;13.50;60.00
68011;DHT22;54794;48.348;7.878;2024-02-26T10:05:19;13.50;60.00
68011;DHT22;54794;48.348;7.878;2024-02-26T10:07:46;13.60;60.10
68011;DHT22;54794;48.348;7.878;2024-02-26T10:10:14;13.60;59.90
68011;DHT22;54794;48.348;7.878;2024-02-26T10:12:41;13.50;59.80
68011;DHT22;54794;48.348;7.878;2024-02-26T10:15:08;13.70;59.90
68011;DHT22;54794;48.348;7.878;2024-02-26T10:17:36;13.70;59.90
68011;DHT22;54794;48.348;7.878;2024-02-26T10:20:16;13.70;59.80
68011;DHT22;54794;48.348;7.878;2024-02-26T10:22:49;13.80;60.10
68011;DHT22;54794;48.348;7.878;2024-02-26T10:25:16;13.90;60.10
68011;DHT22;54794;48.348;7.878;2024-02-26T10:27:43;14.00;60.20
68011;DHT22;54794;48.348;7.878;2024-02-26T10:30:20;13.90;60.20
68011;DHT22;54794;48.348;7.878;2024-02-26T10:32:49;14.00;60.10
68011;DHT22;54794;48.348;7.878;2024-02-26T10:35:17;14.00;59.90
68011;DHT22;54794;48.348;7.878;2024-02-26T10:37:47;14.00;60.00
68011;DHT22;54794;48.348;7.878;2024-02-26T10:40:16;14.10;59.90
68011;DHT22;54794;48.348;7.878;2024-02-26T10:42:43;14.40;60.00
68011;DHT22;54794;48.348;7.878;2024-02-26T10:45:12;14.10;59.90
68011;DHT22;54794;48.348;7.878;2024-02-26T10:47:40;14.20;59.90
68011;DHT22;54794;48.348;7.878;2024-02-26T10:50:09;14.20;59.90
68011;DHT22;54794;48.348;7.878;2024-02-26T10:52:37;14.20;59.80
68011;DHT22;54794;48.348;7.878;2024-02-26T10:55:05;14.10;59.70
68011;DHT22;54794;48.348;7.878;2024-02-26T10:57:39;14.20;59.70
68011;DHT22;54794;48.348;7.878;2024-02-26T11:00:08;14.40;59.90
68011;DHT22;54794;48.348;7.878;2024-02-26T11:02:40;14.20;59.70
68011;DHT22;54794;48.348;7.878;2024-02-26T11:05:08;14.40;59.90
68011;DHT22;54794;48.348;7.878;2024-02-26T11:07:35;14.30;59.80
68011;DHT22;54794;48.348;7.878;2024-02-26T11:10:06;14.20;59.80
68011;DHT22;54794;48.348;7.878;2024-02-26T11:12:35;14.40;59.90
68011;DHT22;54794;48.348;7.878;2024-02-26T11:15:04;14.70;60.10
68011;DHT22;54794;48.348;7.878;2024-02-26T11:17:32;14.40;59.90
68011;DHT22;54794;48.348;7.878;2024-02-26T11:20:01;14.40;60.40
68011;DHT22;54794;48.348;7.878;2024-02-26T11:22:29;14.40;59.80
68011;DHT22;54794;48.348;7.878;2024-02-26T11:24:56;14.40;59.80
68011;DHT22;54794;48.348;7.878;2024-02-26T11:27:35;14.60;59.90
68011;DHT22;54794;48.348;7.878;2024-02-26T11:30:12;14.50;59.90
68011;DHT22;54794;48.348;7.878;2024-02-26T11:32:40;14.50;59.80
68011;DHT22;54794;48.348;7.878;2024-02-26T11:35:07;14.60;59.80
68011;DHT22;54794;48.348;7.878;2024-02-26T11:37:37;14.60;59.80
68011;DHT22;54794;48.348;7.878;2024-02-26T11:40:11;14.60;59.80
68011;DHT22;54794;48.348;7.878;2024-02-26T11:42:44;14.70;60.10
68011;DHT22;54794;48.348;7.878;2024-02-26T11:48:16;14.80;60.00
68011;DHT22;54794;48.348;7.878;2024-02-26T11:50:52;14.80;59.70
68011;DHT22;54794;48.348;7.878;2024-02-26T11:53:27;14.90;59.80
68011;DHT22;54794;48.348;7.878;2024-02-26T11:58:48;15.00;60.10
68011;DHT22;54794;48.348;7.878;2024-02-26T12:01:35;15.00;59.90
68011;DHT22;54794;48.348;7.878;2024-02-26T12:04:12;15.10;60.30
68011;DHT22;54794;48.348;7.878;2024-02-26T12:06:50;15.10;60.00
68011;DHT22;54794;48.348;7.878;2024-02-26T12:09:39;15.30;59.90
68011;DHT22;54794;48.348;7.878;2024-02-26T12:12:13;15.20;60.00
68011;DHT22;54794;48.348;7.878;2024-02-26T12:14:52;15.70;59.90
68011;DHT22;54794;48.348;7.878;2024-02-26T12:17:23;15.80;60.00
68011;DHT22;54794;48.348;7.878;2024-02-26T12:19:52;15.30;59.60
68011;DHT22;54794;48.348;7.878;2024-02-26T12:22:23;15.40;59.60
68011;DHT22;54794;48.348;7.878;2024-02-26T12:25:00;15.40;59.60
68011;DHT22;54794;48.348;7.878;2024-02-26T12:27:29;15.50;59.80
68011;DHT22;54794;48.348;7.878;2024-02-26T12:29:56;15.40;59.50
68011;DHT22;54794;48.348;7.878;2024-02-26T12:32:23;15.50;59.30
68011;DHT22;54794;48.348;7.878;2024-02-26T12:34:51;15.50;59.30
68011;DHT22;54794;48.348;7.878;2024-02-26T12:37:18;15.50;59.30
68011;DHT22;54794;48.348;7.878;2024-02-26T12:39:45;15.80;59.30
68011;DHT22;54794;48.348;7.878;2024-02-26T12:42:12;15.40;59.10
68011;DHT22;54794;48.348;7.878;2024-02-26T12:44:41;16.00;59.50
68011;DHT22;54794;48.348;7.878;2024-02-26T12:47:07;15.80;59.40
68011;DHT22;54794;48.348;7.878;2024-02-26T12:49:37;15.60;59.40
68011;DHT22;54794;48.348;7.878;2024-02-26T12:52:05;15.90;59.40
68011;DHT22;54794;48.348;7.878;2024-02-26T12:54:33;15.70;59.30
68011;DHT22;54794;48.348;7.878;2024-02-26T12:57:01;16.10;59.40
68011;DHT22;54794;48.348;7.878;2024-02-26T12:59:30;15.70;59.10
68011;DHT22;54794;48.348;7.878;2024-02-26T13:01:58;15.70;59.10
68011;DHT22;54794;48.348;7.878;2024-02-26T13:04:26;16.10;59.20
68011;DHT22;54794;48.348;7.878;2024-02-26T13:06:58;15.70;59.00
68011;DHT22;54794;48.348;7.878;2024-02-26T13:09:33;15.70;59.10
68011;DHT22;54794;48.348;7.878;2024-02-26T13:12:07;15.70;59.00
68011;DHT22;54794;48.348;7.878;2024-02-26T13:14:35;15.70;59.00
68011;DHT22;54794;48.348;7.878;2024-02-26T13:17:02;15.80;58.90
68011;DHT22;54794;48.348;7.878;2024-02-26T13:19:29;15.80;59.00
68011;DHT22;54794;48.348;7.878;2024-02-26T13:22:03;16.20;59.30
68011;DHT22;54794;48.348;7.878;2024-02-26T13:24:34;16.00;58.90
68011;DHT22;54794;48.348;7.878;2024-02-26T13:27:03;15.70;58.80
68011;DHT22;54794;48.348;7.878;2024-02-26T13:29:32;15.80;58.80
68011;DHT22;54794;48.348;7.878;2024-02-26T13:31:59;15.90;58.90
68011;DHT22;54794;48.348;7.878;2024-02-26T13:34:27;15.80;58.90
68011;DHT22;54794;48.348;7.878;2024-02-26T13:36:57;15.80;59.00
68011;DHT22;54794;48.348;7.878;2024-02-26T13:39:25;16.00;59.10
68011;DHT22;54794;48.348;7.878;2024-02-26T13:41:54;16.20;59.20
68011;DHT22;54794;48.348;7.878;2024-02-26T13:44:23;15.90;59.00
68011;DHT22;54794;48.348;7.878;2024-02-26T13:46:50;16.10;59.10
68011;DHT22;54794;48.348;7.878;2024-02-26T13:49:17;16.00;59.10
68011;DHT22;54794;48.348;7.878;2024-02-26T13:51:44;15.90;58.90
68011;DHT22;54794;48.348;7.878;2024-02-26T13:54:11;15.80;58.80
68011;DHT22;54794;48.348;7.878;2024-02-26T13:56:40;15.40;58.70
68011;DHT22;54794;48.348;7.878;2024-02-26T13:59:09;15.80;58.90
68011;DHT22;54794;48.348;7.878;2024-02-26T14:01:36;15.80;59.00
68011;DHT22;54794;48.348;7.878;2024-02-26T14:04:03;16.10;59.10
68011;DHT22;54794;48.348;7.878;2024-02-26T14:06:31;15.80;59.00
68011;DHT22;54794;48.348;7.878;2024-02-26T14:08:58;15.90;59.10
68011;DHT22;54794;48.348;7.878;2024-02-26T14:11:26;15.80;59.00
68011;DHT22;54794;48.348;7.878;2024-02-26T14:13:53;15.80;59.00
68011;DHT22;54794;48.348;7.878;2024-02-26T14:16:19;15.80;59.00
68011;DHT22;54794;48.348;7.878;2024-02-26T14:18:46;15.90;59.10
68011;DHT22;54794;48.348;7.878;2024-02-26T14:21:14;15.70;59.10
68011;DHT22;54794;48.348;7.878;2024-02-26T14:23:41;15.90;59.20
68011;DHT22;54794;48.348;7.878;2024-02-26T14:26:10;15.80;59.20
68011;DHT22;54794;48.348;7.878;2024-02-26T14:28:38;15.80;59.20
68011;DHT22;54794;48.348;7.878;2024-02-26T14:31:06;15.30;58.90
68011;DHT22;54794;48.348;7.878;2024-02-26T14:33:39;15.80;59.30
68011;DHT22;54794;48.348;7.878;2024-02-26T14:36:08;15.80;59.50
68011;DHT22;54794;48.348;7.878;2024-02-26T14:38:36;15.90;59.40
68011;DHT22;54794;48.348;7.878;2024-02-26T14:41:03;15.90;59.30
68011;DHT22;54794;48.348;7.878;2024-02-26T14:43:30;16.30;59.50
68011;DHT22;54794;48.348;7.878;2024-02-26T14:45:58;16.00;59.40
68011;DHT22;54794;48.348;7.878;2024-02-26T14:48:28;16.00;59.30
68011;DHT22;54794;48.348;7.878;2024-02-26T14:50:56;16.10;59.20
68011;DHT22;54794;48.348;7.878;2024-02-26T14:53:23;16.00;59.10
68011;DHT22;54794;48.348;7.878;2024-02-26T14:55:49;16.00;59.10
68011;DHT22;54794;48.348;7.878;2024-02-26T14:58:16;16.40;59.30
68011;DHT22;54794;48.348;7.878;2024-02-26T15:00:43;16.20;59.20
68011;DHT22;54794;48.348;7.878;2024-02-26T15:03:10;16.00;59.10
68011;DHT22;54794;48.348;7.878;2024-02-26T15:05:37;16.00;59.10
68011;DHT22;54794;48.348;7.878;2024-02-26T15:08:04;16.30;59.10
68011;DHT22;54794;48.348;7.878;2024-02-26T15:10:35;16.00;58.90
68011;DHT22;54794;48.348;7.878;2024-02-26T15:13:02;16.00;58.90
68011;DHT22;54794;48.348;7.878;2024-02-26T15:15:31;16.00;58.90
68011;DHT22;54794;48.348;7.878;2024-02-26T15:17:58;16.00;58.90
68011;DHT22;54794;48.348;7.878;2024-02-26T15:20:24;16.30;59.20
68011;DHT22;54794;48.348;7.878;2024-02-26T15:22:51;15.90;59.00
68011;DHT22;54794;48.348;7.878;2024-02-26T15:25:18;16.10;59.10
68011;DHT22;54794;48.348;7.878;2024-02-26T15:27:45;15.90;58.90
68011;DHT22;54794;48.348;7.878;2024-02-26T15:30:12;15.80;58.90
68011;DHT22;54794;48.348;7.878;2024-02-26T15:32:40;15.90;58.80
68011;DHT22;54794;48.348;7.878;2024-02-26T15:35:07;15.70;58.70
68011;DHT22;54794;48.348;7.878;2024-02-26T15:37:35;15.80;58.70
68011;DHT22;54794;48.348;7.878;2024-02-26T15:40:02;16.00;58.90
68011;DHT22;54794;48.348;7.878;2024-02-26T15:42:29;15.80;58.90